Time;durP1;ratioP1;P1;durP2;ratioP2;P2;SDS_P1;SDS_P2;PMS_P1;PMS_P2;Temp;Humidity;BMP_temperature;BMP_pressure;BME280_temperature;BME280_humidity;BME280_pressure;Samples;Min_cycle;Max_cycle;Signal;HPM_P1;HPM_P2
2024/03/30 00:02:23;;;;;;;5.03;4.00;;;;;;;;;;5024036;28;20050;-81
2024/03/30 00:04:50;;;;;;;7.47;4.28;;;;;;;;;;5023265;28;20053;-82
2024/03/30 00:07:16;;;;;;;3.90;3.50;;;;;;;;;;5023824;28;20050;-82
2024/03/30 00:09:42;;;;;;;4.47;3.28;;;;;;;;;;5024235;28;20092;-82
2024/03/30 00:12:08;;;;;;;5.13;3.30;;;;;;;;;;4999890;28;20509;-82
2024/03/30 00:14:34;;;;;;;5.68;3.90;;;;;;;;;;5016433;28;20471;-81
2024/03/30 00:17:01;;;;;;;5.18;3.88;;;;;;;;;;5004586;28;20054;-82
2024/03/30 00:19:27;;;;;;;5.32;4.15;;;;;;;;;;5004563;28;20054;-82
2024/03/30 00:21:53;;;;;;;4.80;3.85;;;;;;;;;;5012413;28;20057;-82
2024/03/30 00:24:19;;;;;;;5.20;3.90;;;;;;;;;;5020147;28;20104;-82
2024/03/30 00:26:45;;;;;;;6.57;4.32;;;;;;;;;;5019738;28;20448;-82
2024/03/30 00:29:12;;;;;;;4.78;3.45;;;;;;;;;;5002249;28;20060;-83
2024/03/30 00:31:38;;;;;;;4.30;3.55;;;;;;;;;;5018486;28;20061;-82
2024/03/30 00:34:04;;;;;;;4.47;4.07;;;;;;;;;;5001599;28;20443;-82
2024/03/30 00:36:30;;;;;;;6.40;3.80;;;;;;;;;;5018003;28;20042;-81
2024/03/30 00:38:57;;;;;;;4.32;3.30;;;;;;;;;;5017989;28;20056;-82
2024/03/30 00:41:24;;;;;;;6.38;3.47;;;;;;;;;;5002589;28;20046;-82
2024/03/30 00:43:50;;;;;;;5.03;3.50;;;;;;;;;;5002512;28;20057;-82
2024/03/30 00:46:16;;;;;;;3.70;3.35;;;;;;;;;;5018624;28;20110;-82
2024/03/30 00:48:42;;;;;;;4.97;3.67;;;;;;;;;;5003089;28;20050;-82
2024/03/30 00:51:08;;;;;;;3.65;3.28;;;;;;;;;;5002664;28;20050;-82
2024/03/30 00:53:35;;;;;;;4.55;3.70;;;;;;;;;;5002172;28;20062;-82
2024/03/30 00:56:01;;;;;;;4.50;3.70;;;;;;;;;;5011206;28;20058;-82
2024/03/30 00:58:31;;;;;;;4.05;3.65;;;;;;;;;;5026776;28;20053;-82
2024/03/30 01:00:57;;;;;;;4.13;3.35;;;;;;;;;;5002600;28;20061;-82
2024/03/30 01:03:23;;;;;;;6.25;3.40;;;;;;;;;;5002707;28;20101;-81
2024/03/30 01:05:50;;;;;;;4.13;3.00;;;;;;;;;;5002895;28;20108;-82
2024/03/30 01:08:17;;;;;;;3.00;2.80;;;;;;;;;;5018767;28;20316;-82
2024/03/30 01:10:43;;;;;;;3.85;3.42;;;;;;;;;;5026617;28;20429;-82
2024/03/30 01:13:09;;;;;;;7.38;3.08;;;;;;;;;;5018780;28;20057;-81
2024/03/30 01:15:36;;;;;;;5.07;3.20;;;;;;;;;;5010781;28;20507;-82
2024/03/30 01:18:02;;;;;;;3.38;2.97;;;;;;;;;;5002590;28;20045;-82
2024/03/30 01:20:28;;;;;;;4.05;3.22;;;;;;;;;;5019095;28;20081;-82
2024/03/30 01:22:55;;;;;;;4.90;3.13;;;;;;;;;;5018965;28;20061;-82
2024/03/30 01:25:21;;;;;;;6.93;3.88;;;;;;;;;;5010474;28;20058;-82
2024/03/30 01:27:49;;;;;;;4.90;3.58;;;;;;;;;;5002867;28;20475;-82
2024/03/30 01:30:15;;;;;;;3.35;3.03;;;;;;;;;;5018814;28;20050;-83
2024/03/30 01:32:42;;;;;;;3.97;3.58;;;;;;;;;;5010590;28;20058;-81
2024/03/30 01:35:08;;;;;;;3.60;3.08;;;;;;;;;;5021511;28;20049;-83
2024/03/30 01:37:35;;;;;;;4.18;3.13;;;;;;;;;;5010486;28;20431;-83
2024/03/30 01:40:01;;;;;;;4.25;3.70;;;;;;;;;;5009921;28;20058;-83
2024/03/30 01:42:31;;;;;;;3.38;2.50;;;;;;;;;;5005203;28;20108;-83
2024/03/30 01:44:57;;;;;;;3.03;2.72;;;;;;;;;;5026166;28;20539;-83
2024/03/30 01:47:24;;;;;;;2.90;2.70;;;;;;;;;;5029183;28;20065;-82
2024/03/30 01:49:51;;;;;;;2.72;2.53;;;;;;;;;;5041253;28;20112;-82
2024/03/30 01:52:19;;;;;;;6.55;2.20;;;;;;;;;;5010509;28;20056;-82
2024/03/30 01:54:46;;;;;;;6.32;2.60;;;;;;;;;;5021030;28;20050;-82
2024/03/30 01:57:13;;;;;;;2.97;2.35;;;;;;;;;;5024385;28;20042;-81
2024/03/30 01:59:40;;;;;;;2.97;2.45;;;;;;;;;;5016013;28;20050;-81
2024/03/30 02:02:08;;;;;;;2.63;2.42;;;;;;;;;;5007315;28;20049;-82
2024/03/30 02:04:35;;;;;;;3.63;2.40;;;;;;;;;;5023082;28;20061;-82
2024/03/30 02:07:01;;;;;;;2.97;2.30;;;;;;;;;;5021943;28;20057;-82
2024/03/30 02:09:28;;;;;;;3.63;2.03;;;;;;;;;;5021678;28;20046;-82
2024/03/30 02:11:54;;;;;;;4.20;2.53;;;;;;;;;;5025870;28;20054;-82
2024/03/30 02:14:21;;;;;;;2.38;2.17;;;;;;;;;;5003311;28;20109;-82
2024/03/30 02:16:47;;;;;;;3.70;2.20;;;;;;;;;;5018571;28;20054;-82
2024/03/30 02:19:16;;;;;;;2.42;2.22;;;;;;;;;;5019326;28;20046;-82
2024/03/30 02:21:42;;;;;;;2.75;2.28;;;;;;;;;;5019223;28;20420;-82
2024/03/30 02:24:09;;;;;;;2.70;2.20;;;;;;;;;;5028212;28;20505;-82
2024/03/30 02:26:35;;;;;;;4.65;2.15;;;;;;;;;;5010481;28;20053;-82
2024/03/30 02:29:02;;;;;;;2.65;1.77;;;;;;;;;;5018095;28;20077;-82
2024/03/30 02:31:29;;;;;;;6.00;2.10;;;;;;;;;;5001368;28;20523;-82
2024/03/30 02:33:55;;;;;;;2.67;1.75;;;;;;;;;;5018108;28;20058;-82
2024/03/30 02:36:21;;;;;;;3.53;1.88;;;;;;;;;;5019086;28;20050;-82
2024/03/30 02:38:47;;;;;;;1.85;1.75;;;;;;;;;;5001900;28;20057;-82
2024/03/30 02:41:14;;;;;;;2.22;1.60;;;;;;;;;;5008993;28;20064;-81
2024/03/30 02:43:40;;;;;;;3.42;1.60;;;;;;;;;;5018555;28;20057;-82
2024/03/30 02:46:06;;;;;;;2.13;1.73;;;;;;;;;;5002046;28;20054;-82
2024/03/30 02:48:32;;;;;;;4.53;1.80;;;;;;;;;;5025874;28;20055;-82
2024/03/30 02:50:59;;;;;;;6.85;1.88;;;;;;;;;;5000473;28;20424;-82
2024/03/30 02:53:25;;;;;;;1.40;1.35;;;;;;;;;;5030466;28;20475;-82
2024/03/30 02:55:51;;;;;;;2.15;1.77;;;;;;;;;;5005991;28;20069;-82
2024/03/30 02:58:17;;;;;;;5.13;1.75;;;;;;;;;;5029800;28;20057;-82
2024/03/30 03:00:44;;;;;;;1.67;1.58;;;;;;;;;;5024289;28;20119;-82
2024/03/30 03:03:10;;;;;;;5.97;1.40;;;;;;;;;;5033532;28;20057;-81
2024/03/30 03:05:36;;;;;;;1.80;1.70;;;;;;;;;;5004555;28;20057;-82
2024/03/30 03:08:02;;;;;;;3.05;1.60;;;;;;;;;;5011860;28;20119;-81
2024/03/30 03:10:29;;;;;;;5.82;1.80;;;;;;;;;;5017015;28;20050;-82
2024/03/30 03:12:55;;;;;;;3.30;1.77;;;;;;;;;;5009855;28;20046;-82
2024/03/30 03:15:21;;;;;;;3.58;1.83;;;;;;;;;;5019078;28;20062;-82
2024/03/30 03:17:47;;;;;;;5.70;1.70;;;;;;;;;;5010256;28;20050;-82
2024/03/30 03:20:14;;;;;;;4.15;1.70;;;;;;;;;;5004668;28;20535;-82
2024/03/30 03:22:40;;;;;;;2.83;1.50;;;;;;;;;;5013912;28;20085;-83
2024/03/30 03:25:07;;;;;;;5.65;1.92;;;;;;;;;;5007518;28;20505;-82
2024/03/30 03:27:33;;;;;;;6.85;2.15;;;;;;;;;;5031543;28;20520;-82
2024/03/30 03:29:59;;;;;;;3.75;1.80;;;;;;;;;;5006037;28;20527;-82
2024/03/30 03:32:25;;;;;;;5.50;2.08;;;;;;;;;;5021558;28;20042;-82
2024/03/30 03:34:52;;;;;;;11.77;2.20;;;;;;;;;;5029566;28;20050;-81
2024/03/30 03:37:18;;;;;;;7.10;2.40;;;;;;;;;;5012181;28;20049;-81
2024/03/30 03:39:44;;;;;;;8.82;2.08;;;;;;;;;;5028421;28;20054;-81
2024/03/30 03:42:11;;;;;;;9.07;2.50;;;;;;;;;;5020005;28;20053;-82
2024/03/30 03:44:37;;;;;;;15.98;2.13;;;;;;;;;;5019510;28;20046;-82
2024/03/30 03:47:03;;;;;;;10.15;2.95;;;;;;;;;;5010736;28;20068;-82
2024/03/30 03:49:30;;;;;;;9.88;2.33;;;;;;;;;;5027326;28;20065;-81
2024/03/30 03:51:57;;;;;;;12.00;2.75;;;;;;;;;;5003441;28;20453;-81
2024/03/30 03:54:23;;;;;;;10.05;2.75;;;;;;;;;;5010591;28;20060;-82
2024/03/30 03:56:49;;;;;;;13.40;3.25;;;;;;;;;;5010474;28;20053;-82
2024/03/30 03:59:15;;;;;;;17.83;3.30;;;;;;;;;;5018414;28;20060;-82
2024/03/30 04:01:41;;;;;;;14.25;2.95;;;;;;;;;;5030820;28;20050;-82
2024/03/30 04:04:08;;;;;;;18.88;3.85;;;;;;;;;;5028608;28;20508;-82
2024/03/30 04:06:34;;;;;;;30.48;4.78;;;;;;;;;;5004390;28;20060;-81
2024/03/30 04:09:02;;;;;;;27.90;4.20;;;;;;;;;;5010776;28;20057;-81
2024/03/30 04:11:28;;;;;;;26.02;4.78;;;;;;;;;;5023225;28;20046;-82
2024/03/30 04:13:54;;;;;;;25.08;4.13;;;;;;;;;;5009752;28;20054;-82
2024/03/30 04:16:22;;;;;;;39.90;5.07;;;;;;;;;;5003330;28;20041;-82
2024/03/30 04:18:48;;;;;;;35.55;5.40;;;;;;;;;;5019492;28;20045;-82
2024/03/30 04:21:14;;;;;;;33.45;5.30;;;;;;;;;;5027703;28;20049;-82
2024/03/30 04:23:42;;;;;;;30.73;4.75;;;;;;;;;;5021833;28;20054;-82
2024/03/30 04:26:10;;;;;;;33.05;5.13;;;;;;;;;;5014772;28;20054;-82
2024/03/30 04:28:36;;;;;;;42.15;6.70;;;;;;;;;;5032822;28;20428;-82
2024/03/30 04:31:03;;;;;;;35.08;5.90;;;;;;;;;;5027397;28;20050;-82
2024/03/30 04:33:29;;;;;;;43.40;5.70;;;;;;;;;;5012233;28;20054;-81
2024/03/30 04:35:57;;;;;;;33.50;6.47;;;;;;;;;;5004691;28;20056;-82
2024/03/30 04:38:23;;;;;;;51.95;7.25;;;;;;;;;;5012525;28;20049;-81
2024/03/30 04:41:08;;;;;;;58.50;7.90;;;;;;;;;;5019815;28;20124;-81
2024/03/30 04:43:36;;;;;;;54.03;7.38;;;;;;;;;;5010155;28;20053;-82
2024/03/30 04:46:04;;;;;;;52.70;7.38;;;;;;;;;;4999176;28;20562;-82
2024/03/30 04:48:30;;;;;;;66.90;7.55;;;;;;;;;;5016339;28;20058;-81
2024/03/30 04:51:01;;;;;;;52.70;7.15;;;;;;;;;;5016136;28;20050;-81
2024/03/30 04:53:35;;;;;;;55.72;7.22;;;;;;;;;;5000131;28;20056;-82
2024/03/30 04:56:02;;;;;;;62.45;8.70;;;;;;;;;;5020099;28;20045;-82
2024/03/30 04:58:29;;;;;;;55.25;8.65;;;;;;;;;;5031086;28;20058;-82
2024/03/30 05:01:00;;;;;;;63.15;8.45;;;;;;;;;;5015750;28;20049;-82
2024/03/30 05:03:26;;;;;;;56.45;7.60;;;;;;;;;;5005714;28;20519;-82
2024/03/30 05:05:52;;;;;;;64.38;7.80;;;;;;;;;;5028249;28;20053;-82
2024/03/30 05:08:18;;;;;;;60.33;8.95;;;;;;;;;;5028462;28;20568;-81
2024/03/30 05:10:45;;;;;;;82.88;10.30;;;;;;;;;;5010687;28;20057;-81
2024/03/30 05:13:12;;;;;;;70.28;10.00;;;;;;;;;;5003053;28;20508;-81
2024/03/30 05:15:42;;;;;;;69.72;9.18;;;;;;;;;;5001485;28;20057;-81
2024/03/30 05:18:10;;;;;;;88.65;13.00;;;;;;;;;;5009891;28;20062;-81
2024/03/30 05:20:49;;;;;;;75.15;10.15;;;;;;;;;;5008934;28;20058;-81
2024/03/30 05:23:26;;;;;;;68.00;10.63;;;;;;;;;;5017968;28;20057;-81
2024/03/30 05:25:52;;;;;;;78.60;11.32;;;;;;;;;;5006824;28;20420;-82
2024/03/30 05:28:20;;;;;;;88.43;12.23;;;;;;;;;;5021647;28;20516;-81
2024/03/30 05:30:50;;;;;;;102.18;11.95;;;;;;;;;;5000608;28;20428;-82
2024/03/30 05:33:17;;;;;;;80.22;12.38;;;;;;;;;;5001843;28;20061;-81
2024/03/30 05:35:43;;;;;;;86.47;10.30;;;;;;;;;;5018711;28;20057;-82
2024/03/30 05:38:09;;;;;;;101.22;14.52;;;;;;;;;;5026326;28;20052;-82
2024/03/30 05:40:36;;;;;;;81.63;12.02;;;;;;;;;;5002163;28;20054;-81
2024/03/30 05:43:03;;;;;;;90.25;12.38;;;;;;;;;;5007130;28;20061;-82
2024/03/30 05:45:29;;;;;;;93.68;12.95;;;;;;;;;;4999432;28;20068;-82
2024/03/30 05:47:56;;;;;;;99.85;12.75;;;;;;;;;;5006872;28;20114;-81
2024/03/30 05:50:22;;;;;;;80.25;12.73;;;;;;;;;;5005307;28;20045;-81
2024/03/30 05:52:49;;;;;;;106.13;13.30;;;;;;;;;;5000502;28;20050;-81
2024/03/30 05:55:15;;;;;;;76.50;10.57;;;;;;;;;;5016557;28;20061;-81
2024/03/30 05:57:42;;;;;;;113.55;14.23;;;;;;;;;;5001969;28;20061;-82
2024/03/30 06:00:10;;;;;;;96.20;12.13;;;;;;;;;;4999979;28;20496;-82
2024/03/30 06:02:37;;;;;;;98.22;11.45;;;;;;;;;;4999163;28;20058;-81
2024/03/30 06:05:03;;;;;;;81.68;12.20;;;;;;;;;;5018244;28;20062;-81
2024/03/30 06:07:29;;;;;;;104.07;12.90;;;;;;;;;;5019123;28;20081;-82
2024/03/30 06:09:55;;;;;;;96.15;13.50;;;;;;;;;;5025915;28;20046;-82
2024/03/30 06:12:22;;;;;;;106.72;11.30;;;;;;;;;;5016176;28;20056;-82
2024/03/30 06:14:48;;;;;;;106.25;15.45;;;;;;;;;;5003255;28;20425;-82
2024/03/30 06:17:14;;;;;;;98.53;11.40;;;;;;;;;;5018149;28;20046;-80
2024/03/30 06:19:42;;;;;;;105.65;13.70;;;;;;;;;;4997094;28;20049;-81
2024/03/30 06:22:08;;;;;;;112.75;14.27;;;;;;;;;;5005027;28;20504;-82
2024/03/30 06:24:36;;;;;;;107.00;14.23;;;;;;;;;;5023905;28;20417;-82
2024/03/30 06:27:03;;;;;;;100.53;14.52;;;;;;;;;;5026532;28;20463;-82
2024/03/30 06:29:30;;;;;;;112.63;13.38;;;;;;;;;;5038781;28;20075;-81
2024/03/30 06:31:56;;;;;;;107.22;13.80;;;;;;;;;;5009623;28;20112;-83
2024/03/30 06:34:22;;;;;;;104.50;14.18;;;;;;;;;;5007383;28;20081;-82
2024/03/30 06:36:48;;;;;;;97.50;13.77;;;;;;;;;;5023458;28;20049;-82
2024/03/30 06:39:14;;;;;;;114.60;14.93;;;;;;;;;;5007218;28;20085;-83
2024/03/30 06:44:25;;;;;;;103.88;14.00;;;;;;;;;;5025079;28;20054;-83
2024/03/30 06:46:52;;;;;;;95.85;14.68;;;;;;;;;;5007666;28;20045;-82
2024/03/30 06:49:18;;;;;;;105.32;13.68;;;;;;;;;;5014298;28;20042;-82
2024/03/30 06:51:44;;;;;;;110.82;14.63;;;;;;;;;;5011031;28;20050;-83
2024/03/30 06:54:10;;;;;;;107.40;14.57;;;;;;;;;;5009660;28;20069;-83
2024/03/30 06:56:36;;;;;;;104.95;14.02;;;;;;;;;;5015738;28;20054;-82
2024/03/30 06:59:03;;;;;;;101.43;12.63;;;;;;;;;;5028031;28;20046;-82
2024/03/30 07:01:29;;;;;;;107.45;15.23;;;;;;;;;;5021810;28;20054;-81
2024/03/30 07:03:55;;;;;;;85.45;13.05;;;;;;;;;;5004738;28;20459;-82
2024/03/30 07:06:22;;;;;;;109.90;13.93;;;;;;;;;;5013657;28;20050;-82
2024/03/30 07:08:50;;;;;;;100.00;15.20;;;;;;;;;;5011930;28;20058;-82
2024/03/30 07:11:19;;;;;;;98.70;13.00;;;;;;;;;;5029100;28;20050;-82
2024/03/30 07:13:45;;;;;;;109.25;13.98;;;;;;;;;;5004339;28;20512;-82
2024/03/30 07:16:11;;;;;;;102.65;15.13;;;;;;;;;;5004055;28;20057;-82
2024/03/30 07:18:38;;;;;;;97.93;15.15;;;;;;;;;;5022279;28;20060;-82
2024/03/30 07:21:04;;;;;;;114.53;14.98;;;;;;;;;;5009093;28;20061;-83
2024/03/30 07:23:31;;;;;;;115.75;13.57;;;;;;;;;;5011598;28;20053;-82
2024/03/30 07:25:58;;;;;;;104.45;15.48;;;;;;;;;;5011673;28;20062;-83
2024/03/30 07:28:24;;;;;;;104.63;14.65;;;;;;;;;;5028642;28;20601;-82
2024/03/30 07:30:54;;;;;;;122.70;16.73;;;;;;;;;;5003591;28;20046;-82
2024/03/30 07:33:21;;;;;;;132.20;33.78;;;;;;;;;;5004066;28;20050;-83
2024/03/30 07:35:57;;;;;;;104.07;15.43;;;;;;;;;;5004497;28;20057;-82
2024/03/30 07:38:27;;;;;;;113.43;14.43;;;;;;;;;;5029318;28;20050;-83
2024/03/30 07:40:54;;;;;;;141.60;39.20;;;;;;;;;;5010445;28;20061;-83
2024/03/30 07:43:20;;;;;;;91.80;14.77;;;;;;;;;;5028742;28;20057;-82
2024/03/30 07:45:46;;;;;;;108.78;15.45;;;;;;;;;;5027703;28;20096;-82
2024/03/30 07:48:13;;;;;;;99.80;14.55;;;;;;;;;;5021036;28;20058;-83
2024/03/30 07:50:40;;;;;;;104.70;15.50;;;;;;;;;;5000805;28;20402;-83
2024/03/30 07:53:06;;;;;;;101.80;16.67;;;;;;;;;;5022062;28;20065;-83
2024/03/30 07:55:32;;;;;;;113.95;17.08;;;;;;;;;;5007239;28;20049;-83
2024/03/30 07:57:59;;;;;;;129.25;16.27;;;;;;;;;;5003885;28;20061;-80
2024/03/30 08:00:25;;;;;;;132.27;18.10;;;;;;;;;;5010406;28;20061;-82
2024/03/30 08:02:59;;;;;;;130.20;17.48;;;;;;;;;;5010554;28;20050;-82
2024/03/30 08:05:26;;;;;;;112.50;16.73;;;;;;;;;;5014736;28;20503;-82
2024/03/30 08:07:52;;;;;;;138.35;16.92;;;;;;;;;;5013222;28;20424;-83
2024/03/30 08:10:18;;;;;;;128.30;18.85;;;;;;;;;;5012663;28;20076;-82
2024/03/30 08:12:45;;;;;;;147.45;17.75;;;;;;;;;;5028620;28;20060;-82
2024/03/30 08:15:12;;;;;;;131.27;18.05;;;;;;;;;;5011328;28;20060;-82
2024/03/30 08:17:38;;;;;;;126.47;18.73;;;;;;;;;;5004210;28;20053;-83
2024/03/30 08:20:05;;;;;;;136.05;18.27;;;;;;;;;;5028294;28;20054;-81
2024/03/30 08:22:31;;;;;;;133.25;18.60;;;;;;;;;;5030335;28;20050;-83
2024/03/30 08:24:57;;;;;;;108.38;15.77;;;;;;;;;;5015389;28;20049;-81
2024/03/30 08:27:23;;;;;;;120.03;17.45;;;;;;;;;;5030568;28;20053;-82
2024/03/30 08:29:49;;;;;;;123.80;17.30;;;;;;;;;;5011602;28;20050;-82
2024/03/30 08:32:16;;;;;;;113.22;15.98;;;;;;;;;;5011672;28;20045;-82
2024/03/30 08:34:42;;;;;;;121.85;18.60;;;;;;;;;;5003370;28;20053;-82
2024/03/30 08:37:08;;;;;;;113.85;16.77;;;;;;;;;;5027694;28;20527;-82
2024/03/30 08:39:34;;;;;;;105.10;14.65;;;;;;;;;;5012435;28;20054;-82
2024/03/30 08:42:00;;;;;;;122.22;16.83;;;;;;;;;;5012670;28;20108;-82
2024/03/30 08:44:27;;;;;;;99.43;15.65;;;;;;;;;;5014133;28;20056;-83
2024/03/30 08:46:53;;;;;;;110.03;15.48;;;;;;;;;;5016742;28;20060;-83
2024/03/30 08:49:19;;;;;;;106.63;15.65;;;;;;;;;;5015252;28;20488;-82
2024/03/30 08:51:45;;;;;;;116.32;14.68;;;;;;;;;;5007780;28;20054;-82
2024/03/30 08:54:12;;;;;;;107.53;16.05;;;;;;;;;;5017689;28;20121;-81
2024/03/30 08:56:38;;;;;;;116.20;15.65;;;;;;;;;;5009895;28;20053;-81
2024/03/30 08:59:04;;;;;;;99.68;15.07;;;;;;;;;;5030057;28;20083;-82
2024/03/30 09:01:32;;;;;;;102.82;16.20;;;;;;;;;;5024973;28;20072;-82
2024/03/30 09:03:58;;;;;;;101.35;15.63;;;;;;;;;;5023417;28;20072;-82
2024/03/30 09:06:25;;;;;;;101.03;15.60;;;;;;;;;;5007685;28;20513;-82
2024/03/30 09:08:51;;;;;;;99.68;14.55;;;;;;;;;;5026325;28;20527;-82
2024/03/30 09:11:17;;;;;;;98.82;15.13;;;;;;;;;;5005214;28;20054;-84
2024/03/30 09:13:43;;;;;;;116.10;16.73;;;;;;;;;;5028200;28;20057;-82
2024/03/30 09:16:10;;;;;;;90.82;14.23;;;;;;;;;;5020553;28;20421;-82
2024/03/30 09:18:36;;;;;;;93.93;14.23;;;;;;;;;;5009550;28;20046;-82
2024/03/30 09:21:03;;;;;;;98.72;15.27;;;;;;;;;;5004623;28;20085;-82
2024/03/30 09:23:29;;;;;;;103.60;15.85;;;;;;;;;;5008659;28;20061;-83
2024/03/30 09:25:56;;;;;;;92.55;15.88;;;;;;;;;;5010323;28;20499;-82
2024/03/30 09:28:22;;;;;;;95.60;14.00;;;;;;;;;;5008948;28;20045;-83
2024/03/30 09:30:49;;;;;;;95.15;14.00;;;;;;;;;;5003345;28;20111;-81
2024/03/30 09:33:16;;;;;;;97.40;14.20;;;;;;;;;;5021245;28;20053;-82
2024/03/30 09:35:42;;;;;;;100.82;14.80;;;;;;;;;;5022211;28;20057;-83
2024/03/30 09:38:08;;;;;;;103.28;13.32;;;;;;;;;;5009898;28;20058;-83
2024/03/30 09:40:35;;;;;;;81.93;12.77;;;;;;;;;;5031466;28;20057;-83
2024/03/30 09:43:02;;;;;;;93.63;13.32;;;;;;;;;;5014830;28;20053;-84
2024/03/30 09:45:29;;;;;;;101.90;13.00;;;;;;;;;;5013578;28;20053;-82
2024/03/30 09:48:00;;;;;;;87.70;13.27;;;;;;;;;;5027851;28;20084;-82
2024/03/30 09:50:27;;;;;;;88.50;12.50;;;;;;;;;;5011647;28;20045;-82
2024/03/30 09:52:54;;;;;;;66.93;11.35;;;;;;;;;;5028943;28;20462;-83
2024/03/30 09:55:20;;;;;;;89.47;12.07;;;;;;;;;;5012626;28;20053;-82
2024/03/30 09:57:51;;;;;;;73.07;12.27;;;;;;;;;;5008884;28;20054;-82
2024/03/30 10:00:18;;;;;;;87.90;11.52;;;;;;;;;;5024798;28;20077;-83
2024/03/30 10:02:44;;;;;;;76.10;10.52;;;;;;;;;;5007251;28;20065;-82
2024/03/30 10:05:12;;;;;;;70.22;11.93;;;;;;;;;;5023951;28;20066;-81
2024/03/30 10:07:42;;;;;;;63.60;10.55;;;;;;;;;;5009641;28;20116;-82
2024/03/30 10:10:11;;;;;;;69.22;10.35;;;;;;;;;;5010644;28;20057;-82
2024/03/30 10:12:56;;;;;;;62.95;9.73;;;;;;;;;;5024191;28;20101;-82
2024/03/30 10:15:35;;;;;;;54.67;9.65;;;;;;;;;;5022868;28;20050;-81
2024/03/30 10:18:01;;;;;;;77.28;9.90;;;;;;;;;;5001955;28;20046;-82
2024/03/30 10:20:27;;;;;;;57.03;9.45;;;;;;;;;;5023174;28;20054;-83
2024/03/30 10:22:53;;;;;;;58.65;8.82;;;;;;;;;;5010466;28;20061;-82
2024/03/30 10:25:20;;;;;;;68.57;9.63;;;;;;;;;;5025517;28;20046;-83
2024/03/30 10:27:46;;;;;;;63.20;9.25;;;;;;;;;;5005850;28;20057;-83
2024/03/30 10:30:13;;;;;;;71.50;10.65;;;;;;;;;;5022046;28;20416;-81
2024/03/30 10:32:40;;;;;;;52.63;9.77;;;;;;;;;;5024383;28;20080;-82
2024/03/30 10:35:11;;;;;;;63.58;9.15;;;;;;;;;;5011613;28;20436;-82
2024/03/30 10:37:37;;;;;;;62.65;10.43;;;;;;;;;;5009046;28;20523;-82
2024/03/30 10:40:05;;;;;;;68.13;9.40;;;;;;;;;;4995482;28;20058;-82
2024/03/30 10:42:31;;;;;;;62.17;8.77;;;;;;;;;;5020364;28;20505;-82
2024/03/30 10:45:01;;;;;;;60.45;9.02;;;;;;;;;;5021198;28;20444;-82
2024/03/30 10:47:29;;;;;;;84.43;10.13;;;;;;;;;;5005693;28;20523;-82
2024/03/30 10:49:56;;;;;;;58.58;9.60;;;;;;;;;;5008524;28;20053;-82
2024/03/30 10:52:22;;;;;;;66.88;9.18;;;;;;;;;;4999161;28;20505;-82
2024/03/30 10:54:48;;;;;;;68.43;9.95;;;;;;;;;;5004139;28;20050;-83
2024/03/30 10:57:16;;;;;;;78.75;9.80;;;;;;;;;;5004787;28;20247;-82
2024/03/30 10:59:45;;;;;;;58.80;9.02;;;;;;;;;;5024275;28;20424;-82
2024/03/30 11:02:19;;;;;;;69.05;8.80;;;;;;;;;;5012765;28;20049;-82
2024/03/30 11:04:45;;;;;;;69.28;10.23;;;;;;;;;;5008085;28;20065;-82
2024/03/30 11:07:14;;;;;;;74.38;11.27;;;;;;;;;;5024808;28;20068;-82
2024/03/30 11:09:44;;;;;;;71.18;10.55;;;;;;;;;;5010143;28;20500;-82
2024/03/30 11:12:10;;;;;;;67.20;9.43;;;;;;;;;;5016113;28;20420;-83
2024/03/30 11:14:37;;;;;;;60.22;9.82;;;;;;;;;;5016214;28;20046;-84
2024/03/30 11:17:14;;;;;;;68.63;10.38;;;;;;;;;;5030438;28;20058;-84
2024/03/30 11:19:51;;;;;;;83.20;11.52;;;;;;;;;;5030012;28;20046;-83
2024/03/30 11:22:24;;;;;;;85.35;10.90;;;;;;;;;;5028168;28;20070;-82
2024/03/30 11:24:59;;;;;;;73.88;9.75;;;;;;;;;;5000541;28;20125;-82
2024/03/30 11:27:28;;;;;;;69.43;9.77;;;;;;;;;;5014727;28;20053;-83
2024/03/30 11:30:03;;;;;;;75.50;10.57;;;;;;;;;;5024693;28;20052;-82
2024/03/30 11:32:35;;;;;;;80.47;10.73;;;;;;;;;;5013969;28;20103;-82
2024/03/30 11:35:04;;;;;;;81.22;10.93;;;;;;;;;;5011870;28;20053;-83
2024/03/30 11:37:33;;;;;;;58.20;8.95;;;;;;;;;;5029385;28;20112;-82
2024/03/30 11:40:02;;;;;;;84.35;10.20;;;;;;;;;;5025140;28;20065;-83
2024/03/30 11:42:35;;;;;;;77.18;10.27;;;;;;;;;;5010497;28;20061;-81
2024/03/30 11:45:03;;;;;;;79.47;11.48;;;;;;;;;;5027698;28;20121;-82
2024/03/30 11:47:30;;;;;;;75.05;10.52;;;;;;;;;;5011833;28;20147;-82
2024/03/30 11:49:57;;;;;;;77.53;11.23;;;;;;;;;;5013660;28;20467;-82
2024/03/30 11:52:24;;;;;;;88.72;10.30;;;;;;;;;;5029334;28;20061;-82
2024/03/30 11:54:50;;;;;;;80.95;10.82;;;;;;;;;;5009556;28;20574;-81
2024/03/30 11:57:16;;;;;;;85.05;10.82;;;;;;;;;;5026266;28;20062;-82
2024/03/30 11:59:43;;;;;;;74.75;10.43;;;;;;;;;;5026966;28;20108;-83
2024/03/30 12:02:13;;;;;;;70.53;11.02;;;;;;;;;;5026108;28;20045;-82
2024/03/30 12:04:44;;;;;;;72.60;10.40;;;;;;;;;;5009621;28;20054;-82
2024/03/30 12:07:11;;;;;;;81.80;10.38;;;;;;;;;;5025796;28;20054;-83
2024/03/30 12:09:37;;;;;;;77.25;11.13;;;;;;;;;;5012470;28;20050;-82
2024/03/30 12:12:20;;;;;;;73.18;11.38;;;;;;;;;;5007390;28;20061;-82
2024/03/30 12:14:47;;;;;;;77.43;10.85;;;;;;;;;;5017474;28;20046;-83
2024/03/30 12:17:14;;;;;;;80.28;10.40;;;;;;;;;;5008021;28;20060;-82
2024/03/30 12:19:40;;;;;;;71.10;9.90;;;;;;;;;;5011917;28;20049;-81
2024/03/30 12:22:06;;;;;;;65.30;11.68;;;;;;;;;;5028727;28;20056;-82
2024/03/30 12:24:36;;;;;;;81.03;11.52;;;;;;;;;;5009527;28;20045;-83
2024/03/30 12:27:02;;;;;;;73.82;9.93;;;;;;;;;;5024921;28;20057;-82
2024/03/30 12:29:29;;;;;;;74.15;10.50;;;;;;;;;;5010508;28;20045;-82
2024/03/30 12:31:55;;;;;;;83.32;10.77;;;;;;;;;;5005305;28;20061;-82
2024/03/30 12:34:21;;;;;;;71.32;10.50;;;;;;;;;;5024296;28;20050;-82
2024/03/30 12:36:48;;;;;;;71.78;9.80;;;;;;;;;;5011296;28;20147;-82
2024/03/30 12:39:16;;;;;;;95.70;11.15;;;;;;;;;;5011475;28;20038;-82
2024/03/30 12:41:42;;;;;;;71.03;10.43;;;;;;;;;;5006067;28;20512;-82
2024/03/30 12:44:09;;;;;;;80.70;10.45;;;;;;;;;;5003781;28;20049;-82
2024/03/30 12:46:35;;;;;;;60.95;9.55;;;;;;;;;;5000347;28;20066;-81
2024/03/30 12:49:02;;;;;;;68.45;9.98;;;;;;;;;;5029868;28;20057;-83
2024/03/30 12:51:33;;;;;;;62.80;10.93;;;;;;;;;;5012207;28;20053;-83
2024/03/30 12:53:59;;;;;;;81.60;11.75;;;;;;;;;;5026958;28;20057;-83
2024/03/30 12:56:26;;;;;;;61.53;13.73;;;;;;;;;;5009920;28;20054;-82
2024/03/30 12:58:53;;;;;;;75.18;11.93;;;;;;;;;;5008892;28;20059;-81
2024/03/30 13:01:19;;;;;;;87.30;13.55;;;;;;;;;;5001000;28;20512;-82
2024/03/30 13:03:46;;;;;;;75.63;11.32;;;;;;;;;;5008938;28;20124;-82
2024/03/30 13:06:13;;;;;;;63.78;9.05;;;;;;;;;;5024686;28;20500;-81
2024/03/30 13:08:50;;;;;;;65.10;9.77;;;;;;;;;;5010801;28;20076;-82
2024/03/30 13:11:17;;;;;;;62.85;9.90;;;;;;;;;;5028675;28;20470;-81
2024/03/30 13:13:43;;;;;;;61.42;9.60;;;;;;;;;;5003475;28;20050;-82
2024/03/30 13:16:09;;;;;;;64.90;9.45;;;;;;;;;;5011195;28;20065;-81
2024/03/30 13:18:36;;;;;;;60.28;9.45;;;;;;;;;;5016995;28;20058;-83
2024/03/30 13:21:08;;;;;;;61.75;9.77;;;;;;;;;;5007577;28;20062;-82
2024/03/30 13:23:35;;;;;;;74.63;10.40;;;;;;;;;;5009354;28;20053;-81
2024/03/30 13:26:02;;;;;;;55.95;10.00;;;;;;;;;;5005318;28;20054;-81
2024/03/30 13:28:28;;;;;;;67.70;10.90;;;;;;;;;;5007085;28;20053;-82
2024/03/30 13:30:54;;;;;;;52.33;9.15;;;;;;;;;;5006923;28;20054;-82
2024/03/30 13:33:21;;;;;;;64.60;10.43;;;;;;;;;;5024953;28;20050;-82
2024/03/30 13:35:48;;;;;;;69.25;12.25;;;;;;;;;;5007819;28;20045;-82
2024/03/30 13:38:14;;;;;;;69.55;11.80;;;;;;;;;;5007754;28;20432;-82
2024/03/30 13:40:41;;;;;;;68.65;9.98;;;;;;;;;;5008850;28;20057;-82
2024/03/30 13:43:08;;;;;;;67.43;11.10;;;;;;;;;;5008089;28;20054;-81
2024/03/30 13:45:34;;;;;;;53.63;9.77;;;;;;;;;;5008449;28;20408;-82
2024/03/30 13:48:01;;;;;;;69.25;10.65;;;;;;;;;;5007986;28;20505;-82
2024/03/30 13:50:27;;;;;;;51.28;9.48;;;;;;;;;;5007300;28;20050;-83
2024/03/30 13:52:54;;;;;;;57.38;9.85;;;;;;;;;;5024651;28;20050;-82
2024/03/30 13:55:20;;;;;;;60.25;9.20;;;;;;;;;;5024550;28;20053;-82
2024/03/30 13:57:48;;;;;;;67.43;11.68;;;;;;;;;;5012072;28;20049;-82
2024/03/30 14:00:14;;;;;;;63.85;11.05;;;;;;;;;;5028504;28;20057;-83
2024/03/30 14:02:41;;;;;;;79.38;12.15;;;;;;;;;;5009265;28;20076;-83
2024/03/30 14:05:07;;;;;;;68.00;12.00;;;;;;;;;;5010303;28;20084;-82
2024/03/30 14:07:33;;;;;;;69.90;11.20;;;;;;;;;;5011399;28;20057;-83
2024/03/30 14:10:00;;;;;;;66.95;10.95;;;;;;;;;;5029300;28;20053;-82
2024/03/30 14:12:27;;;;;;;60.90;9.90;;;;;;;;;;5003113;28;20062;-84
2024/03/30 14:14:53;;;;;;;63.58;10.68;;;;;;;;;;5025672;28;20049;-82
2024/03/30 14:17:19;;;;;;;45.72;8.95;;;;;;;;;;5007198;28;20061;-82
2024/03/30 14:19:45;;;;;;;59.95;9.18;;;;;;;;;;5009057;28;20060;-81
2024/03/30 14:22:12;;;;;;;64.93;9.85;;;;;;;;;;5001241;28;20508;-84
2024/03/30 14:24:38;;;;;;;50.58;9.27;;;;;;;;;;5013186;28;20053;-84
2024/03/30 14:27:05;;;;;;;60.92;9.98;;;;;;;;;;5029838;28;20053;-82